sensor_id;sensor_type;location;lat;lon;timestamp;P1;durP1;ratioP1;P2;durP2;ratioP2
28766;SDS011;15921;52.034;20.650;2024-02-14T00:00:15;32.75;;;13.30;;
28766;SDS011;15921;52.034;20.650;2024-02-14T00:02:45;29.88;;;12.20;;
28766;SDS011;15921;52.034;20.650;2024-02-14T00:05:14;29.50;;;12.55;;
28766;SDS011;15921;52.034;20.650;2024-02-14T00:07:40;30.92;;;12.43;;
28766;SDS011;15921;52.034;20.650;2024-02-14T00:10:06;30.02;;;12.60;;
28766;SDS011;15921;52.034;20.650;2024-02-14T00:12:33;28.00;;;12.07;;
28766;SDS011;15921;52.034;20.650;2024-02-14T00:14:59;26.25;;;12.02;;
28766;SDS011;15921;52.034;20.650;2024-02-14T00:17:24;36.22;;;13.68;;
28766;SDS011;15921;52.034;20.650;2024-02-14T00:19:50;33.58;;;13.63;;
28766;SDS011;15921;52.034;20.650;2024-02-14T00:22:16;31.90;;;13.00;;
28766;SDS011;15921;52.034;20.650;2024-02-14T00:24:42;29.60;;;12.75;;
28766;SDS011;15921;52.034;20.650;2024-02-14T00:27:08;28.73;;;12.25;;
28766;SDS011;15921;52.034;20.650;2024-02-14T00:29:35;32.70;;;11.32;;
28766;SDS011;15921;52.034;20.650;2024-02-14T00:32:01;26.92;;;10.48;;
28766;SDS011;15921;52.034;20.650;2024-02-14T00:34:27;30.33;;;11.75;;
28766;SDS011;15921;52.034;20.650;2024-02-14T00:36:52;27.52;;;12.18;;
28766;SDS011;15921;52.034;20.650;2024-02-14T00:39:18;24.48;;;11.35;;
28766;SDS011;15921;52.034;20.650;2024-02-14T00:41:46;30.20;;;12.30;;
28766;SDS011;15921;52.034;20.650;2024-02-14T00:44:12;26.70;;;11.18;;
28766;SDS011;15921;52.034;20.650;2024-02-14T00:46:42;26.60;;;11.27;;
28766;SDS011;15921;52.034;20.650;2024-02-14T00:49:08;23.63;;;10.27;;
28766;SDS011;15921;52.034;20.650;2024-02-14T00:51:35;25.60;;;11.52;;
28766;SDS011;15921;52.034;20.650;2024-02-14T00:54:03;26.48;;;10.88;;
28766;SDS011;15921;52.034;20.650;2024-02-14T00:56:29;26.17;;;10.95;;
28766;SDS011;15921;52.034;20.650;2024-02-14T00:58:55;23.92;;;10.70;;
28766;SDS011;15921;52.034;20.650;2024-02-14T01:01:21;27.27;;;10.50;;
28766;SDS011;15921;52.034;20.650;2024-02-14T01:03:47;26.27;;;10.93;;
28766;SDS011;15921;52.034;20.650;2024-02-14T01:06:14;26.88;;;10.98;;
28766;SDS011;15921;52.034;20.650;2024-02-14T01:08:40;32.47;;;11.35;;
28766;SDS011;15921;52.034;20.650;2024-02-14T01:11:07;24.48;;;9.57;;
28766;SDS011;15921;52.034;20.650;2024-02-14T01:13:33;22.58;;;9.95;;
28766;SDS011;15921;52.034;20.650;2024-02-14T01:15:59;23.08;;;10.20;;
28766;SDS011;15921;52.034;20.650;2024-02-14T01:18:25;23.70;;;9.88;;
28766;SDS011;15921;52.034;20.650;2024-02-14T01:20:51;24.33;;;10.48;;
28766;SDS011;15921;52.034;20.650;2024-02-14T01:23:16;27.30;;;10.00;;
28766;SDS011;15921;52.034;20.650;2024-02-14T01:25:42;27.55;;;10.27;;
28766;SDS011;15921;52.034;20.650;2024-02-14T01:28:08;21.65;;;9.65;;
28766;SDS011;15921;52.034;20.650;2024-02-14T01:30:34;27.80;;;10.40;;
28766;SDS011;15921;52.034;20.650;2024-02-14T01:33:01;24.05;;;9.73;;
28766;SDS011;15921;52.034;20.650;2024-02-14T01:35:29;21.23;;;9.85;;
28766;SDS011;15921;52.034;20.650;2024-02-14T01:37:55;25.20;;;9.48;;
28766;SDS011;15921;52.034;20.650;2024-02-14T01:40:21;27.08;;;9.88;;
28766;SDS011;15921;52.034;20.650;2024-02-14T01:42:46;21.88;;;9.32;;
28766;SDS011;15921;52.034;20.650;2024-02-14T01:45:12;27.10;;;10.93;;
28766;SDS011;15921;52.034;20.650;2024-02-14T01:47:38;22.38;;;9.43;;
28766;SDS011;15921;52.034;20.650;2024-02-14T01:50:07;23.95;;;9.23;;
28766;SDS011;15921;52.034;20.650;2024-02-14T01:52:36;23.83;;;9.18;;
28766;SDS011;15921;52.034;20.650;2024-02-14T01:55:04;27.60;;;11.02;;
28766;SDS011;15921;52.034;20.650;2024-02-14T01:57:31;21.67;;;9.48;;
28766;SDS011;15921;52.034;20.650;2024-02-14T01:59:58;24.45;;;10.68;;
28766;SDS011;15921;52.034;20.650;2024-02-14T02:02:25;25.63;;;9.80;;
28766;SDS011;15921;52.034;20.650;2024-02-14T02:04:52;22.55;;;9.63;;
28766;SDS011;15921;52.034;20.650;2024-02-14T02:07:18;24.48;;;9.82;;
28766;SDS011;15921;52.034;20.650;2024-02-14T02:09:45;25.00;;;10.30;;
28766;SDS011;15921;52.034;20.650;2024-02-14T02:12:11;26.85;;;11.15;;
28766;SDS011;15921;52.034;20.650;2024-02-14T02:14:36;26.58;;;9.75;;
28766;SDS011;15921;52.034;20.650;2024-02-14T02:17:02;26.00;;;9.93;;
28766;SDS011;15921;52.034;20.650;2024-02-14T02:19:32;29.90;;;11.65;;
28766;SDS011;15921;52.034;20.650;2024-02-14T02:21:59;20.98;;;9.63;;
28766;SDS011;15921;52.034;20.650;2024-02-14T02:24:26;26.02;;;10.20;;
28766;SDS011;15921;52.034;20.650;2024-02-14T02:26:51;28.40;;;11.52;;
28766;SDS011;15921;52.034;20.650;2024-02-14T02:29:17;28.98;;;10.15;;
28766;SDS011;15921;52.034;20.650;2024-02-14T02:31:44;25.38;;;9.52;;
28766;SDS011;15921;52.034;20.650;2024-02-14T02:34:11;24.92;;;10.63;;
28766;SDS011;15921;52.034;20.650;2024-02-14T02:36:37;26.50;;;9.82;;
28766;SDS011;15921;52.034;20.650;2024-02-14T02:39:04;23.05;;;9.38;;
28766;SDS011;15921;52.034;20.650;2024-02-14T02:41:30;26.63;;;10.57;;
28766;SDS011;15921;52.034;20.650;2024-02-14T02:43:58;27.05;;;10.80;;
28766;SDS011;15921;52.034;20.650;2024-02-14T02:46:25;23.42;;;9.98;;
28766;SDS011;15921;52.034;20.650;2024-02-14T02:48:51;24.70;;;9.77;;
28766;SDS011;15921;52.034;20.650;2024-02-14T02:51:20;24.55;;;9.55;;
28766;SDS011;15921;52.034;20.650;2024-02-14T02:53:46;23.42;;;10.35;;
28766;SDS011;15921;52.034;20.650;2024-02-14T02:56:12;34.28;;;11.05;;
28766;SDS011;15921;52.034;20.650;2024-02-14T02:58:39;23.63;;;8.10;;
28766;SDS011;15921;52.034;20.650;2024-02-14T03:01:08;20.58;;;9.07;;
28766;SDS011;15921;52.034;20.650;2024-02-14T03:03:37;20.65;;;8.90;;
28766;SDS011;15921;52.034;20.650;2024-02-14T03:06:06;22.83;;;8.73;;
28766;SDS011;15921;52.034;20.650;2024-02-14T03:08:32;28.58;;;10.68;;
28766;SDS011;15921;52.034;20.650;2024-02-14T03:11:08;25.75;;;11.10;;
28766;SDS011;15921;52.034;20.650;2024-02-14T03:13:34;39.33;;;13.00;;
28766;SDS011;15921;52.034;20.650;2024-02-14T03:16:01;37.03;;;13.05;;
28766;SDS011;15921;52.034;20.650;2024-02-14T03:18:26;27.15;;;12.50;;
28766;SDS011;15921;52.034;20.650;2024-02-14T03:20:52;42.33;;;13.02;;
28766;SDS011;15921;52.034;20.650;2024-02-14T03:23:21;38.88;;;13.65;;
28766;SDS011;15921;52.034;20.650;2024-02-14T03:25:47;35.30;;;12.93;;
28766;SDS011;15921;52.034;20.650;2024-02-14T03:28:13;37.85;;;12.90;;
28766;SDS011;15921;52.034;20.650;2024-02-14T03:30:39;33.08;;;11.85;;
28766;SDS011;15921;52.034;20.650;2024-02-14T03:33:05;35.83;;;12.25;;
28766;SDS011;15921;52.034;20.650;2024-02-14T03:35:33;29.13;;;11.65;;
28766;SDS011;15921;52.034;20.650;2024-02-14T03:38:01;26.60;;;11.10;;
28766;SDS011;15921;52.034;20.650;2024-02-14T03:40:27;26.38;;;10.60;;
28766;SDS011;15921;52.034;20.650;2024-02-14T03:42:55;26.92;;;10.55;;
28766;SDS011;15921;52.034;20.650;2024-02-14T03:45:23;29.70;;;11.18;;
28766;SDS011;15921;52.034;20.650;2024-02-14T03:47:49;24.92;;;10.15;;
28766;SDS011;15921;52.034;20.650;2024-02-14T03:50:15;29.05;;;9.77;;
28766;SDS011;15921;52.034;20.650;2024-02-14T03:52:41;27.13;;;10.35;;
28766;SDS011;15921;52.034;20.650;2024-02-14T03:55:07;25.13;;;10.52;;
28766;SDS011;15921;52.034;20.650;2024-02-14T03:57:38;26.67;;;9.50;;
28766;SDS011;15921;52.034;20.650;2024-02-14T04:00:05;33.13;;;10.32;;
28766;SDS011;15921;52.034;20.650;2024-02-14T04:02:34;26.42;;;10.48;;
28766;SDS011;15921;52.034;20.650;2024-02-14T04:05:00;29.58;;;9.85;;
28766;SDS011;15921;52.034;20.650;2024-02-14T04:07:27;22.05;;;10.52;;
28766;SDS011;15921;52.034;20.650;2024-02-14T04:09:54;25.17;;;10.57;;
28766;SDS011;15921;52.034;20.650;2024-02-14T04:12:20;24.67;;;9.88;;
28766;SDS011;15921;52.034;20.650;2024-02-14T04:14:46;28.40;;;10.38;;
28766;SDS011;15921;52.034;20.650;2024-02-14T04:17:12;28.02;;;10.50;;
28766;SDS011;15921;52.034;20.650;2024-02-14T04:19:38;25.15;;;10.95;;
28766;SDS011;15921;52.034;20.650;2024-02-14T04:22:04;26.30;;;10.50;;
28766;SDS011;15921;52.034;20.650;2024-02-14T04:24:32;24.38;;;11.52;;
28766;SDS011;15921;52.034;20.650;2024-02-14T04:26:59;21.85;;;10.85;;
28766;SDS011;15921;52.034;20.650;2024-02-14T04:29:27;26.50;;;11.00;;
28766;SDS011;15921;52.034;20.650;2024-02-14T04:31:55;25.55;;;9.90;;
28766;SDS011;15921;52.034;20.650;2024-02-14T04:34:21;26.67;;;9.80;;
28766;SDS011;15921;52.034;20.650;2024-02-14T04:36:48;24.38;;;10.88;;
28766;SDS011;15921;52.034;20.650;2024-02-14T04:39:14;31.50;;;12.65;;
28766;SDS011;15921;52.034;20.650;2024-02-14T04:41:40;29.77;;;12.13;;
28766;SDS011;15921;52.034;20.650;2024-02-14T04:44:05;34.33;;;12.27;;
28766;SDS011;15921;52.034;20.650;2024-02-14T04:46:32;30.35;;;13.15;;
28766;SDS011;15921;52.034;20.650;2024-02-14T04:48:59;30.48;;;12.20;;
28766;SDS011;15921;52.034;20.650;2024-02-14T04:51:26;30.27;;;12.20;;
28766;SDS011;15921;52.034;20.650;2024-02-14T04:53:52;30.15;;;11.88;;
28766;SDS011;15921;52.034;20.650;2024-02-14T04:56:18;31.75;;;12.65;;
28766;SDS011;15921;52.034;20.650;2024-02-14T04:58:44;33.35;;;12.25;;
28766;SDS011;15921;52.034;20.650;2024-02-14T05:01:09;31.15;;;13.38;;
28766;SDS011;15921;52.034;20.650;2024-02-14T05:03:35;33.35;;;13.48;;
28766;SDS011;15921;52.034;20.650;2024-02-14T05:06:01;32.25;;;13.48;;
28766;SDS011;15921;52.034;20.650;2024-02-14T05:08:27;31.48;;;13.05;;
28766;SDS011;15921;52.034;20.650;2024-02-14T05:10:53;35.10;;;13.23;;
28766;SDS011;15921;52.034;20.650;2024-02-14T05:13:19;28.67;;;12.68;;
28766;SDS011;15921;52.034;20.650;2024-02-14T05:15:44;32.35;;;13.40;;
28766;SDS011;15921;52.034;20.650;2024-02-14T05:18:10;31.55;;;12.18;;
28766;SDS011;15921;52.034;20.650;2024-02-14T05:20:36;31.85;;;13.77;;
28766;SDS011;15921;52.034;20.650;2024-02-14T05:23:03;30.42;;;12.95;;
28766;SDS011;15921;52.034;20.650;2024-02-14T05:25:29;33.63;;;14.23;;
28766;SDS011;15921;52.034;20.650;2024-02-14T05:27:57;36.72;;;13.73;;
28766;SDS011;15921;52.034;20.650;2024-02-14T05:30:22;32.28;;;14.20;;
28766;SDS011;15921;52.034;20.650;2024-02-14T05:32:49;36.35;;;14.43;;
28766;SDS011;15921;52.034;20.650;2024-02-14T05:35:17;40.00;;;15.85;;
28766;SDS011;15921;52.034;20.650;2024-02-14T05:37:43;32.90;;;14.10;;
28766;SDS011;15921;52.034;20.650;2024-02-14T05:40:09;34.17;;;16.02;;
28766;SDS011;15921;52.034;20.650;2024-02-14T05:42:35;37.05;;;15.88;;
28766;SDS011;15921;52.034;20.650;2024-02-14T05:45:00;39.20;;;15.65;;
28766;SDS011;15921;52.034;20.650;2024-02-14T05:47:28;41.00;;;15.35;;
28766;SDS011;15921;52.034;20.650;2024-02-14T05:49:55;37.42;;;16.77;;
28766;SDS011;15921;52.034;20.650;2024-02-14T05:52:20;40.20;;;17.58;;
28766;SDS011;15921;52.034;20.650;2024-02-14T05:54:47;37.08;;;16.38;;
28766;SDS011;15921;52.034;20.650;2024-02-14T05:57:12;42.25;;;16.42;;
28766;SDS011;15921;52.034;20.650;2024-02-14T05:59:39;43.30;;;18.15;;
28766;SDS011;15921;52.034;20.650;2024-02-14T06:02:04;48.65;;;17.88;;
28766;SDS011;15921;52.034;20.650;2024-02-14T06:04:33;46.22;;;17.35;;
28766;SDS011;15921;52.034;20.650;2024-02-14T06:06:58;43.58;;;16.70;;
28766;SDS011;15921;52.034;20.650;2024-02-14T06:09:24;46.95;;;17.85;;
28766;SDS011;15921;52.034;20.650;2024-02-14T06:11:50;43.88;;;17.38;;
28766;SDS011;15921;52.034;20.650;2024-02-14T06:14:16;42.72;;;19.20;;
28766;SDS011;15921;52.034;20.650;2024-02-14T06:16:41;48.78;;;18.63;;
28766;SDS011;15921;52.034;20.650;2024-02-14T06:19:07;50.03;;;19.02;;
28766;SDS011;15921;52.034;20.650;2024-02-14T06:21:34;49.53;;;18.25;;
28766;SDS011;15921;52.034;20.650;2024-02-14T06:24:00;44.20;;;17.77;;
28766;SDS011;15921;52.034;20.650;2024-02-14T06:26:29;39.80;;;17.50;;
28766;SDS011;15921;52.034;20.650;2024-02-14T06:28:56;40.92;;;17.05;;
28766;SDS011;15921;52.034;20.650;2024-02-14T06:31:22;43.30;;;17.90;;
28766;SDS011;15921;52.034;20.650;2024-02-14T06:33:48;41.63;;;17.58;;
28766;SDS011;15921;52.034;20.650;2024-02-14T06:36:13;43.75;;;17.35;;
28766;SDS011;15921;52.034;20.650;2024-02-14T06:38:39;44.13;;;17.38;;
28766;SDS011;15921;52.034;20.650;2024-02-14T06:41:05;40.20;;;17.73;;
28766;SDS011;15921;52.034;20.650;2024-02-14T06:43:31;35.92;;;17.23;;
28766;SDS011;15921;52.034;20.650;2024-02-14T06:45:57;43.97;;;18.48;;
28766;SDS011;15921;52.034;20.650;2024-02-14T06:48:22;37.63;;;17.05;;
28766;SDS011;15921;52.034;20.650;2024-02-14T06:50:52;38.05;;;18.52;;
28766;SDS011;15921;52.034;20.650;2024-02-14T06:53:18;48.33;;;18.27;;
28766;SDS011;15921;52.034;20.650;2024-02-14T06:55:44;37.08;;;16.63;;
28766;SDS011;15921;52.034;20.650;2024-02-14T06:58:10;42.92;;;16.90;;
28766;SDS011;15921;52.034;20.650;2024-02-14T07:00:36;46.97;;;18.45;;
28766;SDS011;15921;52.034;20.650;2024-02-14T07:03:02;52.72;;;21.00;;
28766;SDS011;15921;52.034;20.650;2024-02-14T07:05:28;45.42;;;18.83;;
28766;SDS011;15921;52.034;20.650;2024-02-14T07:07:54;50.83;;;21.40;;
28766;SDS011;15921;52.034;20.650;2024-02-14T07:10:20;52.85;;;20.67;;
28766;SDS011;15921;52.034;20.650;2024-02-14T07:12:46;53.70;;;21.38;;
28766;SDS011;15921;52.034;20.650;2024-02-14T07:15:12;60.33;;;21.10;;
28766;SDS011;15921;52.034;20.650;2024-02-14T07:17:38;52.28;;;22.60;;
28766;SDS011;15921;52.034;20.650;2024-02-14T07:20:05;53.92;;;22.13;;
28766;SDS011;15921;52.034;20.650;2024-02-14T07:22:34;54.47;;;21.00;;
28766;SDS011;15921;52.034;20.650;2024-02-14T07:25:00;49.70;;;20.27;;
28766;SDS011;15921;52.034;20.650;2024-02-14T07:27:26;51.53;;;21.67;;
28766;SDS011;15921;52.034;20.650;2024-02-14T07:29:52;45.35;;;17.73;;
28766;SDS011;15921;52.034;20.650;2024-02-14T07:32:18;41.20;;;18.60;;
28766;SDS011;15921;52.034;20.650;2024-02-14T07:34:43;44.88;;;18.13;;
28766;SDS011;15921;52.034;20.650;2024-02-14T07:37:09;40.95;;;19.42;;
28766;SDS011;15921;52.034;20.650;2024-02-14T07:39:35;55.80;;;20.85;;
28766;SDS011;15921;52.034;20.650;2024-02-14T07:42:01;48.55;;;19.40;;
28766;SDS011;15921;52.034;20.650;2024-02-14T07:44:28;41.20;;;19.00;;
28766;SDS011;15921;52.034;20.650;2024-02-14T07:46:53;44.95;;;18.23;;
28766;SDS011;15921;52.034;20.650;2024-02-14T07:49:19;39.38;;;16.73;;
28766;SDS011;15921;52.034;20.650;2024-02-14T07:51:45;42.67;;;17.10;;
28766;SDS011;15921;52.034;20.650;2024-02-14T07:54:11;39.70;;;17.45;;
28766;SDS011;15921;52.034;20.650;2024-02-14T07:56:37;36.97;;;15.82;;
28766;SDS011;15921;52.034;20.650;2024-02-14T07:59:03;33.50;;;15.63;;
28766;SDS011;15921;52.034;20.650;2024-02-14T08:01:30;31.73;;;13.95;;
28766;SDS011;15921;52.034;20.650;2024-02-14T08:03:57;33.90;;;15.15;;
28766;SDS011;15921;52.034;20.650;2024-02-14T08:06:23;36.40;;;17.00;;
28766;SDS011;15921;52.034;20.650;2024-02-14T08:08:49;29.25;;;14.65;;
28766;SDS011;15921;52.034;20.650;2024-02-14T08:11:19;33.10;;;15.07;;
28766;SDS011;15921;52.034;20.650;2024-02-14T08:13:45;32.83;;;14.55;;
28766;SDS011;15921;52.034;20.650;2024-02-14T08:16:10;33.83;;;14.15;;
28766;SDS011;15921;52.034;20.650;2024-02-14T08:18:36;31.35;;;13.75;;
28766;SDS011;15921;52.034;20.650;2024-02-14T08:21:04;28.20;;;13.43;;
28766;SDS011;15921;52.034;20.650;2024-02-14T08:23:31;34.65;;;14.45;;
28766;SDS011;15921;52.034;20.650;2024-02-14T08:25:57;31.75;;;12.93;;
28766;SDS011;15921;52.034;20.650;2024-02-14T08:28:23;27.55;;;11.70;;
28766;SDS011;15921;52.034;20.650;2024-02-14T08:30:49;26.15;;;11.48;;
28766;SDS011;15921;52.034;20.650;2024-02-14T08:33:15;21.25;;;9.70;;
28766;SDS011;15921;52.034;20.650;2024-02-14T08:35:40;29.25;;;9.48;;
28766;SDS011;15921;52.034;20.650;2024-02-14T08:38:06;24.38;;;9.15;;
28766;SDS011;15921;52.034;20.650;2024-02-14T08:40:33;21.40;;;9.23;;
28766;SDS011;15921;52.034;20.650;2024-02-14T08:42:59;21.35;;;9.68;;
28766;SDS011;15921;52.034;20.650;2024-02-14T08:45:26;23.05;;;8.95;;
28766;SDS011;15921;52.034;20.650;2024-02-14T08:47:54;19.48;;;8.25;;
28766;SDS011;15921;52.034;20.650;2024-02-14T08:50:20;20.80;;;8.43;;
28766;SDS011;15921;52.034;20.650;2024-02-14T08:52:46;19.65;;;7.22;;
28766;SDS011;15921;52.034;20.650;2024-02-14T08:55:12;21.13;;;7.75;;
28766;SDS011;15921;52.034;20.650;2024-02-14T08:57:42;16.83;;;7.30;;
28766;SDS011;15921;52.034;20.650;2024-02-14T09:00:08;19.02;;;7.22;;
28766;SDS011;15921;52.034;20.650;2024-02-14T09:02:35;15.70;;;6.57;;
28766;SDS011;15921;52.034;20.650;2024-02-14T09:05:01;23.00;;;7.93;;
28766;SDS011;15921;52.034;20.650;2024-02-14T09:07:29;14.60;;;6.60;;
28766;SDS011;15921;52.034;20.650;2024-02-14T09:09:56;11.00;;;5.82;;
28766;SDS011;15921;52.034;20.650;2024-02-14T09:12:22;15.60;;;6.13;;
28766;SDS011;15921;52.034;20.650;2024-02-14T09:14:48;11.75;;;6.05;;
28766;SDS011;15921;52.034;20.650;2024-02-14T09:17:14;16.05;;;5.78;;
28766;SDS011;15921;52.034;20.650;2024-02-14T09:19:40;13.25;;;5.07;;
28766;SDS011;15921;52.034;20.650;2024-02-14T09:22:06;13.00;;;4.80;;
28766;SDS011;15921;52.034;20.650;2024-02-14T09:24:32;12.57;;;4.88;;
28766;SDS011;15921;52.034;20.650;2024-02-14T09:26:58;11.05;;;5.03;;
28766;SDS011;15921;52.034;20.650;2024-02-14T09:29:24;9.10;;;4.35;;
28766;SDS011;15921;52.034;20.650;2024-02-14T09:31:50;16.17;;;4.82;;
28766;SDS011;15921;52.034;20.650;2024-02-14T09:34:16;10.20;;;4.40;;
28766;SDS011;15921;52.034;20.650;2024-02-14T09:36:44;7.50;;;3.75;;
28766;SDS011;15921;52.034;20.650;2024-02-14T09:39:10;7.85;;;3.92;;
28766;SDS011;15921;52.034;20.650;2024-02-14T09:41:40;9.50;;;4.25;;
28766;SDS011;15921;52.034;20.650;2024-02-14T09:44:09;11.13;;;3.47;;
28766;SDS011;15921;52.034;20.650;2024-02-14T09:46:37;10.80;;;3.70;;
28766;SDS011;15921;52.034;20.650;2024-02-14T09:49:03;10.35;;;3.92;;
28766;SDS011;15921;52.034;20.650;2024-02-14T09:51:31;9.15;;;3.22;;
28766;SDS011;15921;52.034;20.650;2024-02-14T09:53:57;9.30;;;3.47;;
28766;SDS011;15921;52.034;20.650;2024-02-14T09:56:25;6.80;;;3.22;;
28766;SDS011;15921;52.034;20.650;2024-02-14T09:58:52;6.47;;;2.63;;
28766;SDS011;15921;52.034;20.650;2024-02-14T10:01:24;9.77;;;3.55;;
28766;SDS011;15921;52.034;20.650;2024-02-14T10:03:51;9.13;;;3.00;;
28766;SDS011;15921;52.034;20.650;2024-02-14T10:06:18;8.95;;;3.17;;
28766;SDS011;15921;52.034;20.650;2024-02-14T10:08:48;9.30;;;3.15;;
28766;SDS011;15921;52.034;20.650;2024-02-14T10:11:16;10.05;;;3.10;;
28766;SDS011;15921;52.034;20.650;2024-02-14T10:13:49;5.90;;;2.95;;
28766;SDS011;15921;52.034;20.650;2024-02-14T10:16:19;7.72;;;2.45;;
28766;SDS011;15921;52.034;20.650;2024-02-14T10:18:48;8.18;;;3.58;;
28766;SDS011;15921;52.034;20.650;2024-02-14T10:21:15;10.82;;;3.78;;
28766;SDS011;15921;52.034;20.650;2024-02-14T10:23:45;9.63;;;3.72;;
28766;SDS011;15921;52.034;20.650;2024-02-14T10:26:15;7.40;;;2.83;;
28766;SDS011;15921;52.034;20.650;2024-02-14T10:28:45;7.55;;;2.60;;
28766;SDS011;15921;52.034;20.650;2024-02-14T10:31:11;7.50;;;3.35;;
28766;SDS011;15921;52.034;20.650;2024-02-14T10:33:38;14.70;;;3.55;;
28766;SDS011;15921;52.034;20.650;2024-02-14T10:36:06;7.38;;;2.80;;
28766;SDS011;15921;52.034;20.650;2024-02-14T10:38:34;6.55;;;3.33;;
28766;SDS011;15921;52.034;20.650;2024-02-14T10:41:00;5.43;;;2.70;;
28766;SDS011;15921;52.034;20.650;2024-02-14T10:43:26;6.75;;;2.92;;
28766;SDS011;15921;52.034;20.650;2024-02-14T10:45:53;11.18;;;3.80;;
28766;SDS011;15921;52.034;20.650;2024-02-14T10:48:22;8.55;;;2.50;;
28766;SDS011;15921;52.034;20.650;2024-02-14T10:50:50;7.35;;;2.28;;
28766;SDS011;15921;52.034;20.650;2024-02-14T10:53:17;7.78;;;3.05;;
28766;SDS011;15921;52.034;20.650;2024-02-14T10:55:45;10.25;;;3.47;;
28766;SDS011;15921;52.034;20.650;2024-02-14T10:58:13;7.25;;;2.63;;
28766;SDS011;15921;52.034;20.650;2024-02-14T11:00:41;7.82;;;2.65;;
28766;SDS011;15921;52.034;20.650;2024-02-14T11:03:07;4.03;;;2.35;;
28766;SDS011;15921;52.034;20.650;2024-02-14T11:05:44;6.78;;;2.47;;
28766;SDS011;15921;52.034;20.650;2024-02-14T11:08:14;6.88;;;2.65;;
28766;SDS011;15921;52.034;20.650;2024-02-14T11:10:54;5.13;;;2.15;;
28766;SDS011;15921;52.034;20.650;2024-02-14T11:13:29;5.93;;;2.92;;
28766;SDS011;15921;52.034;20.650;2024-02-14T11:16:08;11.43;;;3.63;;
28766;SDS011;15921;52.034;20.650;2024-02-14T11:18:34;8.65;;;3.05;;
28766;SDS011;15921;52.034;20.650;2024-02-14T11:21:04;8.70;;;2.85;;
28766;SDS011;15921;52.034;20.650;2024-02-14T11:23:40;10.95;;;2.90;;
28766;SDS011;15921;52.034;20.650;2024-02-14T11:26:14;7.40;;;3.05;;
28766;SDS011;15921;52.034;20.650;2024-02-14T11:28:41;6.95;;;2.95;;
28766;SDS011;15921;52.034;20.650;2024-02-14T11:31:07;6.65;;;2.72;;
28766;SDS011;15921;52.034;20.650;2024-02-14T11:33:35;7.95;;;3.08;;
28766;SDS011;15921;52.034;20.650;2024-02-14T11:36:06;7.65;;;3.15;;
28766;SDS011;15921;52.034;20.650;2024-02-14T11:38:36;6.82;;;2.90;;
28766;SDS011;15921;52.034;20.650;2024-02-14T11:41:05;7.55;;;3.40;;
28766;SDS011;15921;52.034;20.650;2024-02-14T11:43:30;8.15;;;3.72;;
28766;SDS011;15921;52.034;20.650;2024-02-14T11:45:56;6.47;;;3.17;;
28766;SDS011;15921;52.034;20.650;2024-02-14T11:48:22;7.20;;;3.33;;
28766;SDS011;15921;52.034;20.650;2024-02-14T11:50:49;11.43;;;3.67;;
28766;SDS011;15921;52.034;20.650;2024-02-14T11:53:20;10.98;;;3.45;;
28766;SDS011;15921;52.034;20.650;2024-02-14T11:55:46;7.15;;;3.60;;
28766;SDS011;15921;52.034;20.650;2024-02-14T11:58:13;8.80;;;3.65;;
28766;SDS011;15921;52.034;20.650;2024-02-14T12:00:41;6.10;;;2.83;;
28766;SDS011;15921;52.034;20.650;2024-02-14T12:03:29;8.20;;;3.28;;
28766;SDS011;15921;52.034;20.650;2024-02-14T12:05:54;6.97;;;3.20;;
28766;SDS011;15921;52.034;20.650;2024-02-14T12:08:21;6.03;;;3.65;;
28766;SDS011;15921;52.034;20.650;2024-02-14T12:10:48;6.75;;;3.17;;
28766;SDS011;15921;52.034;20.650;2024-02-14T12:13:20;6.60;;;2.53;;
28766;SDS011;15921;52.034;20.650;2024-02-14T12:15:47;8.48;;;3.97;;
28766;SDS011;15921;52.034;20.650;2024-02-14T12:18:14;7.65;;;3.45;;
28766;SDS011;15921;52.034;20.650;2024-02-14T12:20:41;6.15;;;3.33;;
28766;SDS011;15921;52.034;20.650;2024-02-14T12:23:14;6.40;;;3.10;;
28766;SDS011;15921;52.034;20.650;2024-02-14T12:25:44;6.68;;;3.40;;
28766;SDS011;15921;52.034;20.650;2024-02-14T12:28:17;6.68;;;2.85;;
28766;SDS011;15921;52.034;20.650;2024-02-14T12:30:48;5.72;;;3.10;;
28766;SDS011;15921;52.034;20.650;2024-02-14T12:33:17;7.97;;;2.85;;
28766;SDS011;15921;52.034;20.650;2024-02-14T12:35:47;6.35;;;3.35;;
28766;SDS011;15921;52.034;20.650;2024-02-14T12:38:14;4.53;;;2.80;;
28766;SDS011;15921;52.034;20.650;2024-02-14T12:40:40;9.90;;;2.78;;
28766;SDS011;15921;52.034;20.650;2024-02-14T12:43:07;6.32;;;2.90;;
28766;SDS011;15921;52.034;20.650;2024-02-14T12:45:34;11.15;;;3.10;;
28766;SDS011;15921;52.034;20.650;2024-02-14T12:48:00;7.57;;;2.95;;
28766;SDS011;15921;52.034;20.650;2024-02-14T12:50:26;9.00;;;3.25;;
28766;SDS011;15921;52.034;20.650;2024-02-14T12:52:52;5.30;;;2.80;;
28766;SDS011;15921;52.034;20.650;2024-02-14T12:55:17;6.50;;;2.97;;
28766;SDS011;15921;52.034;20.650;2024-02-14T12:57:44;5.43;;;2.85;;
28766;SDS011;15921;52.034;20.650;2024-02-14T13:00:10;5.32;;;3.05;;
28766;SDS011;15921;52.034;20.650;2024-02-14T13:02:36;5.90;;;2.67;;
28766;SDS011;15921;52.034;20.650;2024-02-14T13:05:03;5.40;;;2.90;;
28766;SDS011;15921;52.034;20.650;2024-02-14T13:07:30;9.57;;;2.67;;
28766;SDS011;15921;52.034;20.650;2024-02-14T13:09:56;9.40;;;3.88;;
28766;SDS011;15921;52.034;20.650;2024-02-14T13:12:22;5.15;;;2.92;;
28766;SDS011;15921;52.034;20.650;2024-02-14T13:14:48;8.30;;;3.25;;
28766;SDS011;15921;52.034;20.650;2024-02-14T13:17:13;6.68;;;3.60;;
28766;SDS011;15921;52.034;20.650;2024-02-14T13:19:39;6.65;;;3.35;;
28766;SDS011;15921;52.034;20.650;2024-02-14T13:22:07;5.80;;;3.03;;
28766;SDS011;15921;52.034;20.650;2024-02-14T13:24:33;8.68;;;3.30;;
28766;SDS011;15921;52.034;20.650;2024-02-14T13:26:59;5.97;;;3.38;;
28766;SDS011;15921;52.034;20.650;2024-02-14T13:29:25;6.43;;;3.35;;
28766;SDS011;15921;52.034;20.650;2024-02-14T13:31:51;9.50;;;3.50;;
28766;SDS011;15921;52.034;20.650;2024-02-14T13:34:17;6.80;;;3.35;;
28766;SDS011;15921;52.034;20.650;2024-02-14T13:36:44;7.43;;;3.42;;
28766;SDS011;15921;52.034;20.650;2024-02-14T13:39:11;9.20;;;3.78;;
28766;SDS011;15921;52.034;20.650;2024-02-14T13:41:40;7.82;;;3.22;;
28766;SDS011;15921;52.034;20.650;2024-02-14T13:44:09;6.70;;;3.38;;
28766;SDS011;15921;52.034;20.650;2024-02-14T13:46:35;6.05;;;2.83;;
28766;SDS011;15921;52.034;20.650;2024-02-14T13:49:01;7.20;;;2.80;;
28766;SDS011;15921;52.034;20.650;2024-02-14T13:51:26;7.65;;;2.78;;
28766;SDS011;15921;52.034;20.650;2024-02-14T13:53:52;7.95;;;3.03;;
28766;SDS011;15921;52.034;20.650;2024-02-14T13:56:18;14.77;;;3.30;;
28766;SDS011;15921;52.034;20.650;2024-02-14T13:58:47;5.85;;;3.05;;
28766;SDS011;15921;52.034;20.650;2024-02-14T14:01:16;6.75;;;3.28;;
28766;SDS011;15921;52.034;20.650;2024-02-14T14:03:45;6.93;;;3.10;;
28766;SDS011;15921;52.034;20.650;2024-02-14T14:06:12;6.65;;;2.67;;
28766;SDS011;15921;52.034;20.650;2024-02-14T14:08:38;5.72;;;2.50;;
28766;SDS011;15921;52.034;20.650;2024-02-14T14:11:04;6.10;;;2.88;;
28766;SDS011;15921;52.034;20.650;2024-02-14T14:13:30;5.60;;;2.92;;
28766;SDS011;15921;52.034;20.650;2024-02-14T14:15:58;5.75;;;2.92;;